Time;durP1;ratioP1;P1;durP2;ratioP2;P2;SDS_P1;SDS_P2;PMS_P1;PMS_P2;Temp;Humidity;BMP_temperature;BMP_pressure;BME280_temperature;BME280_humidity;BME280_pressure;Samples;Min_cycle;Max_cycle;Signal;HPM_P1;HPM_P2
2022/03/08 00:09:01;;;;;;;24.00;14.40;;;;;;;-1.82;72.63;99167.17;434004;1266;108690;-41
2022/03/08 00:19:08;;;;;;;32.80;16.40;;;;;;;-1.87;72.63;99169.30;433908;1267;108889;-41
2022/03/08 00:29:14;;;;;;;25.40;13.30;;;;;;;-1.84;72.94;99167.49;433931;1267;95745;-41
2022/03/08 00:39:21;;;;;;;36.60;14.80;;;;;;;-1.83;73.07;99166.38;433874;1267;109653;-41
2022/03/08 00:49:29;;;;;;;36.50;14.60;;;;;;;-1.96;73.06;99164.21;434080;1266;95471;-41
2022/03/08 00:59:36;;;;;;;31.10;14.30;;;;;;;-2.04;73.58;99165.48;433978;1267;96476;-41
2022/03/08 01:09:44;;;;;;;36.60;14.40;;;;;;;-2.20;73.61;99163.64;433987;1267;109460;-43
2022/03/08 01:29:58;;;;;;;35.40;14.70;;;;;;;-2.65;73.64;99159.67;433646;1268;109369;-39
2022/03/08 01:40:07;;;;;;;31.10;16.50;;;;;;;-2.70;73.68;99157.13;433920;1268;95771;-40
2022/03/08 01:50:13;;;;;;;;;;;;;;;-2.71;73.43;99151.73;433848;1268;108873;-42
2022/03/08 02:00:20;;;;;;;21.90;12.40;;;;;;;-2.67;73.92;99135.37;433986;1267;97532;-41
2022/03/08 02:10:27;;;;;;;40.20;18.20;;;;;;;-2.54;74.05;99134.49;434164;1266;110975;-40
2022/03/08 02:41:24;;;;;;;38.20;17.20;;;;;;;-2.78;74.13;99148.88;432572;1271;97939;-40
2022/03/08 02:51:31;;;;;;;31.20;14.50;;;;;;;-2.82;74.57;99157.52;432512;1271;111160;-41
2022/03/08 03:01:38;;;;;;;34.70;15.60;;;;;;;-2.67;74.66;99162.58;432432;1271;108897;-41
2022/03/08 03:11:46;;;;;;;33.40;15.40;;;;;;;-2.46;74.83;99161.10;432547;1271;98029;-41
2022/03/08 03:21:53;;;;;;;28.50;14.00;;;;;;;-2.25;74.69;99166.88;432391;1271;110715;-40
2022/03/08 03:32:00;;;;;;;25.10;12.50;;;;;;;-2.05;75.12;99167.16;432502;1272;108816;-42
2022/03/08 03:42:08;;;;;;;21.90;10.00;;;;;;;-1.92;75.39;99167.84;432380;1272;98057;-41
2022/03/08 03:52:16;;;;;;;34.80;14.20;;;;;;;-1.88;75.36;99177.90;432573;1271;108736;-42
2022/03/08 04:02:23;;;;;;;31.00;14.60;;;;;;;-1.90;75.77;99180.77;432505;1271;108756;-41
2022/03/08 04:12:30;;;;;;;23.70;13.40;;;;;;;-1.94;75.78;99177.73;432603;1271;96684;-42
2022/03/08 04:22:37;;;;;;;37.60;14.10;;;;;;;-2.06;75.84;99188.11;432602;1272;110589;-41
2022/03/08 04:32:44;;;;;;;40.40;20.50;;;;;;;-2.04;75.74;99193.52;432370;1273;108462;-41
2022/03/08 04:42:52;;;;;;;27.40;13.50;;;;;;;-1.96;76.04;99198.96;432510;1273;96703;-41
2022/03/08 04:52:59;;;;;;;28.70;13.10;;;;;;;-1.88;75.99;99199.50;432033;1273;111046;-41
2022/03/08 05:03:07;;;;;;;44.50;18.20;;;;;;;-1.96;76.03;99209.88;432533;1273;108634;-42
2022/03/08 05:13:15;;;;;;;33.40;17.20;;;;;;;-2.08;76.13;99207.98;431940;1273;96718;-40
2022/03/08 05:23:22;;;;;;;37.60;17.00;;;;;;;-2.18;76.28;99207.87;432448;1273;111226;-41
2022/03/08 05:33:29;;;;;;;33.20;18.10;;;;;;;-2.31;76.15;99221.58;432558;1271;108778;-40
2022/03/08 05:43:37;;;;;;;30.70;15.40;;;;;;;-2.24;76.36;99236.71;432418;1271;97912;-40
2022/03/08 05:53:44;;;;;;;42.70;24.40;;;;;;;-2.08;76.36;99235.66;432477;1272;111131;-40
2022/03/08 06:03:51;;;;;;;37.80;18.50;;;;;;;-1.84;76.67;99246.50;432301;1273;109231;-43
2022/03/08 06:13:59;;;;;;;34.10;16.10;;;;;;;-1.63;76.81;99254.84;432526;1273;96686;-41
2022/03/08 06:24:07;;;;;;;64.00;23.90;;;;;;;-1.57;76.74;99259.59;432070;1273;111046;-42
2022/03/08 06:34:14;;;;;;;44.90;23.10;;;;;;;-1.47;77.03;99264.46;432071;1273;108848;-40
2022/03/08 06:44:21;;;;;;;41.50;20.80;;;;;;;-1.31;77.01;99269.75;432296;1273;109024;-43
2022/03/08 06:54:29;;;;;;;25.80;12.70;;;;;;;-1.01;77.23;99262.30;432498;1273;97947;-41
2022/03/08 07:04:36;;;;;;;24.80;11.30;;;;;;;-0.65;77.27;99266.45;432325;1273;109203;-42
2022/03/08 07:14:43;;;;;;;21.50;12.90;;;;;;;-0.25;77.47;99263.73;432378;1273;97539;-41
2022/03/08 07:24:50;;;;;;;24.60;14.50;;;;;;;0.10;77.70;99263.28;432615;1272;109701;-40
2022/03/08 07:34:57;;;;;;;31.90;14.50;;;;;;;0.51;77.64;99271.91;432699;1271;108190;-42
2022/03/08 07:45:02;;;;;;;35.20;16.30;;;;;;;1.02;77.47;99271.92;432648;1273;107759;-41
2022/03/08 07:55:11;;;;;;;17.60;9.30;;;;;;;1.80;77.00;99271.14;432723;1272;96677;-43
2022/03/08 08:15:25;;;;;;;33.40;14.90;;;;;;;2.59;75.71;99264.55;432584;1273;108521;-41
2022/03/08 08:25:31;;;;;;;25.80;12.10;;;;;;;2.79;74.70;99271.23;432747;1271;97888;-42
2022/03/08 08:35:39;;;;;;;24.20;12.10;;;;;;;2.66;73.59;99281.25;432626;1271;97948;-40
2022/03/08 08:55:53;;;;;;;22.40;9.90;;;;;;;3.06;72.79;99305.63;432682;1272;109505;-40
2022/03/08 09:06:03;;;;;;;29.80;13.90;;;;;;;2.57;72.37;99314.70;428742;1271;5371339;-40
2022/03/08 09:16:11;;;;;;;27.30;12.60;;;;;;;2.43;71.85;99316.38;432647;1271;110207;-44
2022/03/08 09:26:18;;;;;;;19.60;8.90;;;;;;;2.45;71.37;99325.17;432549;1271;108864;-40
2022/03/08 09:36:26;;;;;;;21.90;12.00;;;;;;;2.44;71.19;99324.93;432594;1271;97971;-40
2022/03/08 09:46:33;;;;;;;27.60;13.00;;;;;;;2.42;71.37;99322.52;432526;1271;111111;-44
2022/03/08 09:56:41;;;;;;;19.60;10.70;;;;;;;2.88;70.59;99313.31;432398;1273;109606;-43
2022/03/08 10:06:50;;;;;;;15.40;11.70;;;;;;;3.02;70.20;99305.92;432432;1273;108819;-40
2022/03/08 10:16:57;;;;;;;20.50;8.50;;;;;;;3.55;69.80;99281.12;432575;1273;97907;-41
2022/03/08 10:47:22;;;;;;;17.00;9.20;;;;;;;3.83;68.63;99265.80;432467;1271;96689;-41
2022/03/08 10:57:33;;;;;;;18.30;7.80;;;;;;;3.92;67.74;99260.60;432703;1271;111647;-40
2022/03/08 11:07:57;;;;;;;11.40;7.50;;;;;;;4.37;66.97;99238.97;432464;1271;108838;-41
2022/03/08 11:18:04;;;;;;;17.10;8.00;;;;;;;4.09;66.43;99226.58;432556;1271;108768;-41
2022/03/08 11:28:13;;;;;;;13.50;7.30;;;;;;;4.17;66.19;99220.21;432481;1273;96691;-41
2022/03/08 11:38:19;;;;;;;9.80;6.30;;;;;;;3.94;65.52;99209.45;432448;1273;108468;-40
2022/03/08 11:48:26;;;;;;;12.50;6.30;;;;;;;4.10;65.07;99201.88;432593;1271;108798;-43
2022/03/08 11:58:42;;;;;;;10.80;6.90;;;;;;;4.26;64.19;99210.27;432896;1271;108887;-40
2022/03/08 12:08:49;;;;;;;14.80;5.90;;;;;;;4.26;63.37;99206.64;432468;1271;97913;-39
2022/03/08 12:18:59;;;;;;;16.80;7.20;;;;;;;4.66;63.62;99189.71;432693;1271;111431;-40
2022/03/08 12:29:06;;;;;;;;;;;;;;;4.71;62.72;99188.63;432568;1270;107834;-40
2022/03/08 12:39:34;;;;;;;17.90;7.40;;;;;;;4.94;62.54;99183.59;432392;1271;108850;-41
2022/03/08 12:49:43;;;;;;;20.90;9.30;;;;;;;5.20;61.93;99186.41;432509;1271;96665;-41
2022/03/08 12:59:49;;;;;;;18.00;8.90;;;;;;;5.06;61.28;99182.05;432316;1273;111590;-40
2022/03/08 13:09:55;;;;;;;15.00;7.80;;;;;;;5.13;60.70;99188.67;432092;1274;109494;-40
2022/03/08 13:20:03;;;;;;;13.60;8.10;;;;;;;4.77;60.56;99194.41;432232;1273;108723;-41
2022/03/08 13:30:25;;;;;;;13.90;7.40;;;;;;;4.55;60.55;99208.62;432546;1271;97944;-41
2022/03/08 13:40:34;;;;;;;9.60;5.70;;;;;;;4.39;60.60;99210.56;432467;1271;97926;-41
2022/03/08 13:50:46;;;;;;;14.10;7.80;;;;;;;4.27;60.13;99205.10;432535;1271;110923;-41
2022/03/08 14:00:54;;;;;;;12.00;7.00;;;;;;;4.14;60.33;99204.60;432402;1271;108933;-41
2022/03/08 14:11:00;;;;;;;15.80;8.70;;;;;;;4.00;60.16;99203.83;432422;1271;108857;-40
2022/03/08 14:21:24;;;;;;;14.00;8.80;;;;;;;3.90;60.42;99197.89;432607;1271;96680;-39
2022/03/08 14:31:29;;;;;;;20.40;10.10;;;;;;;3.70;60.83;99203.42;432859;1273;111108;-42
2022/03/08 14:41:38;;;;;;;17.00;9.20;;;;;;;3.68;61.24;99203.66;432528;1272;109013;-42
2022/03/08 14:51:45;;;;;;;20.30;10.50;;;;;;;3.67;61.26;99201.15;432492;1273;108880;-40
2022/03/08 15:01:53;;;;;;;25.70;12.60;;;;;;;3.71;61.42;99192.04;432454;1273;96634;-42
2022/03/08 15:12:01;;;;;;;21.50;11.80;;;;;;;3.67;61.45;99185.46;432701;1273;111133;-41
2022/03/08 15:22:08;;;;;;;26.80;13.90;;;;;;;3.56;61.16;99190.39;432529;1271;109137;-45
2022/03/08 15:32:15;;;;;;;24.40;14.90;;;;;;;3.40;61.13;99201.34;432496;1271;108822;-40
2022/03/08 15:42:23;;;;;;;31.60;19.30;;;;;;;3.33;61.32;99205.86;432449;1271;98012;-42
2022/03/08 15:52:30;;;;;;;31.90;17.00;;;;;;;3.32;61.69;99210.82;432293;1271;111100;-42
2022/03/08 16:02:37;;;;;;;31.90;15.50;;;;;;;3.26;61.72;99202.04;432584;1271;108703;-42
2022/03/08 16:12:44;;;;;;;37.20;15.90;;;;;;;3.17;61.62;99205.34;432552;1271;108769;-41
2022/03/08 16:22:51;;;;;;;108.70;36.40;;;;;;;3.05;61.50;99212.01;432751;1271;96718;-41
2022/03/08 16:32:58;;;;;;;85.80;31.80;;;;;;;2.84;61.66;99220.08;432594;1271;111148;-45
2022/03/08 16:43:05;;;;;;;44.60;18.90;;;;;;;2.63;62.05;99226.34;432677;1271;107888;-41
2022/03/08 16:53:12;;;;;;;41.30;20.30;;;;;;;2.39;62.25;99228.71;432603;1271;108373;-40
2022/03/08 17:03:20;;;;;;;75.30;31.10;;;;;;;2.17;62.65;99243.11;432586;1271;97518;-41
2022/03/08 17:13:28;;;;;;;74.70;30.20;;;;;;;1.92;62.98;99255.64;432533;1271;110136;-44
2022/03/08 17:23:35;;;;;;;114.50;49.10;;;;;;;1.71;63.16;99268.09;432537;1271;108917;-40
2022/03/08 17:33:42;;;;;;;90.30;37.00;;;;;;;1.61;63.63;99265.40;432605;1271;96686;-42
2022/03/08 17:43:50;;;;;;;97.40;41.40;;;;;;;1.49;63.96;99269.98;432499;1271;112512;-42
2022/03/08 17:53:57;;;;;;;59.70;26.70;;;;;;;1.24;64.26;99270.02;432511;1271;108879;-43
2022/03/08 18:34:30;;;;;;;97.30;43.80;;;;;;;0.37;65.75;99248.02;432559;1271;108818;-40
2022/03/08 18:44:37;;;;;;;83.40;36.80;;;;;;;0.13;66.16;99247.79;432597;1271;109007;-42
2022/03/08 18:54:44;;;;;;;49.50;28.10;;;;;;;-0.02;66.27;99235.28;432610;1271;97936;-42
2022/03/08 19:04:51;;;;;;;52.10;26.20;;;;;;;-0.06;66.18;99238.27;432423;1271;111200;-42
2022/03/08 19:14:59;;;;;;;67.80;30.60;;;;;;;-0.07;66.56;99239.56;432591;1271;108820;-41
2022/03/08 19:25:07;;;;;;;96.70;40.40;;;;;;;-0.20;66.86;99242.73;432659;1271;97932;-41
2022/03/08 19:35:14;;;;;;;85.00;37.20;;;;;;;-0.45;67.14;99241.13;432641;1271;111153;-41
2022/03/08 19:55:28;;;;;;;92.80;37.30;;;;;;;-0.79;67.62;99250.97;432581;1273;109138;-43
2022/03/08 20:05:35;;;;;;;106.00;43.80;;;;;;;-0.93;67.62;99252.77;432601;1271;97913;-41
2022/03/08 20:15:42;;;;;;;88.10;38.20;;;;;;;-1.09;67.85;99249.70;432519;1271;108906;-44
2022/03/08 20:25:49;;;;;;;66.60;32.90;;;;;;;-1.17;68.06;99244.61;432560;1271;97936;-41
2022/03/08 20:36:03;;;;;;;66.80;30.80;;;;;;;-1.13;68.34;99247.82;432644;1273;111433;-42
2022/03/08 20:46:11;;;;;;;95.60;39.90;;;;;;;-1.04;68.44;99258.58;432696;1272;109361;-41
2022/03/08 20:56:18;;;;;;;121.30;45.90;;;;;;;-1.06;68.70;99264.20;432567;1272;97922;-43
2022/03/08 21:06:25;;;;;;;108.70;43.20;;;;;;;-1.27;68.81;99264.48;430498;1272;2777409;-41
2022/03/08 21:16:34;;;;;;;122.00;42.10;;;;;;;-1.41;69.02;99264.02;432599;1272;108674;-47
2022/03/08 21:26:41;;;;;;;121.70;47.80;;;;;;;-1.55;69.07;99269.26;432645;1271;108771;-43
2022/03/08 21:36:50;;;;;;;109.50;43.30;;;;;;;-1.62;69.44;99269.77;432471;1271;96712;-41
2022/03/08 21:46:57;;;;;;;105.20;42.20;;;;;;;-1.69;69.94;99272.23;432709;1271;108867;-42
2022/03/08 21:57:07;;;;;;;101.40;48.40;;;;;;;-1.59;69.90;99274.63;432615;1271;97532;-40
2022/03/08 22:07:14;;;;;;;86.90;41.20;;;;;;;-1.34;69.88;99271.85;432672;1271;111160;-40
2022/03/08 22:17:21;;;;;;;135.40;57.30;;;;;;;-1.05;70.26;99277.77;432460;1271;108614;-41
2022/03/08 22:27:27;;;;;;;146.70;59.60;;;;;;;-0.78;70.48;99279.39;432482;1271;98583;-41
2022/03/08 22:37:33;;;;;;;134.10;61.00;;;;;;;-0.61;70.61;99276.41;432520;1271;111643;-44
2022/03/08 22:47:41;;;;;;;159.60;68.50;;;;;;;-0.54;70.59;99289.31;432711;1271;108791;-41
2022/03/08 22:57:49;;;;;;;141.50;61.70;;;;;;;-0.50;70.73;99291.38;432627;1271;108698;-40
2022/03/08 23:07:56;;;;;;;143.10;60.70;;;;;;;-0.46;71.04;99286.29;432428;1271;97953;-43
2022/03/08 23:18:04;;;;;;;135.00;62.90;;;;;;;-0.45;70.91;99267.48;432643;1271;111238;-41
2022/03/08 23:38:16;;;;;;;81.90;42.00;;;;;;;-0.22;71.22;99249.15;432561;1271;97773;-40
2022/03/08 23:48:23;;;;;;;106.80;50.10;;;;;;;0.02;71.29;99245.72;432557;1271;110718;-40
2022/03/08 23:58:29;;;;;;;101.60;44.70;;;;;;;0.18;71.38;99240.65;432479;1271;109457;-41
